createdAt,value
2019-03-21T00:02:18.932Z,9.93
2019-03-21T00:05:00.360Z,8.93
2019-03-21T00:07:31.072Z,7.90
2019-03-21T00:10:39.032Z,9.00
2019-03-21T00:13:28.135Z,5.53
2019-03-21T00:16:17.042Z,7.37
2019-03-21T00:22:20.087Z,7.97
2019-03-21T00:24:56.680Z,6.37
2019-03-21T00:30:55.117Z,7.63
2019-03-21T00:37:05.676Z,5.90
2019-03-21T00:39:44.713Z,13.97
2019-03-21T00:42:33.752Z,5.80
2019-03-21T00:48:30.781Z,7.27
2019-03-21T00:57:28.839Z,7.43
2019-03-21T01:00:19.372Z,9.40
2019-03-21T01:03:00.129Z,8.73
2019-03-21T01:05:41.450Z,9.43
2019-03-21T01:08:22.569Z,9.67
2019-03-21T01:11:03.531Z,6.83
2019-03-21T01:13:44.933Z,8.43
2019-03-21T01:16:26.460Z,8.87
2019-03-21T01:21:47.282Z,6.60
2019-03-21T01:24:28.628Z,6.77
2019-03-21T01:27:10.392Z,7.70
2019-03-21T01:29:51.758Z,7.67
2019-03-21T01:32:32.756Z,8.47
2019-03-21T01:35:14.065Z,6.83
2019-03-21T01:37:55.601Z,6.87
2019-03-21T01:40:37.142Z,7.23
2019-03-21T01:43:18.896Z,6.83
2019-03-21T01:46:00.203Z,7.43
2019-03-21T01:48:41.944Z,7.73
2019-03-21T01:51:23.426Z,9.10
2019-03-21T01:53:54.894Z,6.77
2019-03-21T01:59:53.342Z,6.30
2019-03-21T02:02:54.008Z,6.23
2019-03-21T02:05:25.593Z,6.90
2019-03-21T02:08:07.191Z,10.17
2019-03-21T02:10:48.180Z,8.37
2019-03-21T02:13:29.562Z,8.93
2019-03-21T02:16:11.225Z,9.50
2019-03-21T02:18:52.776Z,7.53
2019-03-21T02:22:02.333Z,10.77
2019-03-21T02:31:00.366Z,7.23
2019-03-21T02:33:49.365Z,7.50
2019-03-21T02:36:38.292Z,8.03
2019-03-21T02:42:26.746Z,8.83
2019-03-21T02:45:16.136Z,9.80
2019-03-21T02:48:05.019Z,7.33
2019-03-21T02:50:54.111Z,6.13
2019-03-21T03:03:50.669Z,8.57
2019-03-21T03:06:19.546Z,6.87
2019-03-21T03:08:50.551Z,7.63
2019-03-21T03:17:07.695Z,9.17
2019-03-21T03:19:49.301Z,10.00
2019-03-21T03:22:30.819Z,9.50
2019-03-21T03:25:12.348Z,6.93
2019-03-21T03:30:43.947Z,7.97
2019-03-21T03:33:33.736Z,7.77
2019-03-21T03:36:22.712Z,7.33
2019-03-21T03:39:11.712Z,7.17
2019-03-21T03:42:21.277Z,7.67
2019-03-21T03:54:41.964Z,9.40
2019-03-21T04:03:41.515Z,9.03
2019-03-21T04:06:30.584Z,6.23
2019-03-21T04:12:03.831Z,6.13
2019-03-21T04:14:52.842Z,7.13
2019-03-21T04:17:24.100Z,7.00
2019-03-21T04:20:13.986Z,6.70
2019-03-21T04:23:03.153Z,8.80
2019-03-21T04:25:40.231Z,8.80
2019-03-21T04:28:14.767Z,9.67
2019-03-21T04:30:45.735Z,9.67
2019-03-21T04:33:36.408Z,9.63
2019-03-21T04:36:25.410Z,8.23
2019-03-21T04:39:14.369Z,7.93
2019-03-21T04:41:45.094Z,6.00
2019-03-21T04:47:34.992Z,7.87
2019-03-21T04:50:24.838Z,12.43
2019-03-21T04:52:55.222Z,7.27
2019-03-21T04:55:44.198Z,6.70
2019-03-21T04:58:14.436Z,9.23
2019-03-21T05:01:03.478Z,7.37
2019-03-21T05:03:52.413Z,7.60
2019-03-21T05:06:41.389Z,6.90
2019-03-21T05:09:22.687Z,8.07
2019-03-21T05:12:04.433Z,6.60
2019-03-21T05:17:42.673Z,5.17
2019-03-21T05:20:35.752Z,4.73
2019-03-21T05:23:24.667Z,6.20
2019-03-21T05:26:13.609Z,6.63
2019-03-21T05:29:02.720Z,6.20
2019-03-21T05:31:51.738Z,9.50
2019-03-21T05:34:40.919Z,8.03
2019-03-21T05:40:20.804Z,5.07
2019-03-21T05:43:11.204Z,6.40
2019-03-21T05:45:41.862Z,6.60
2019-03-21T05:48:30.826Z,7.73
2019-03-21T05:51:19.910Z,5.63
2019-03-21T05:54:08.891Z,4.33
2019-03-21T05:56:57.893Z,5.20
2019-03-21T05:59:39.887Z,5.87
2019-03-21T06:02:18.759Z,7.57
2019-03-21T06:05:07.932Z,5.27
2019-03-21T06:08:15.577Z,6.10
2019-03-21T06:10:56.518Z,7.37
2019-03-21T06:13:27.139Z,5.93
2019-03-21T06:16:16.312Z,6.27
2019-03-21T06:19:16.407Z,11.27
2019-03-21T06:22:07.811Z,5.50
2019-03-21T06:25:18.364Z,3.63
2019-03-21T06:27:48.675Z,4.50
2019-03-21T06:30:19.336Z,5.83
2019-03-21T06:35:30.659Z,3.93
2019-03-21T06:38:01.057Z,6.23
2019-03-21T06:40:31.470Z,4.30
2019-03-21T06:43:20.442Z,4.57
2019-03-21T06:45:50.818Z,9.63
2019-03-21T06:48:39.948Z,5.00
2019-03-21T06:51:10.539Z,6.53
2019-03-21T06:53:41.312Z,6.87
2019-03-21T06:56:11.661Z,3.73
2019-03-21T06:58:42.124Z,3.63
2019-03-21T07:01:13.781Z,3.87
2019-03-21T07:03:44.179Z,5.20
2019-03-21T07:08:48.446Z,7.03
2019-03-21T07:11:19.591Z,5.23
2019-03-21T07:13:50.153Z,6.13
2019-03-21T07:16:20.619Z,4.23
2019-03-21T07:18:51.099Z,9.37
2019-03-21T07:21:22.779Z,7.00
2019-03-21T07:23:53.120Z,5.13
2019-03-21T07:26:23.407Z,6.33
2019-03-21T07:28:54.601Z,6.00
2019-03-21T07:31:24.973Z,4.47
2019-03-21T07:33:55.243Z,5.43
2019-03-21T07:36:26.343Z,3.67
2019-03-21T07:38:56.743Z,4.40
2019-03-21T07:41:27.013Z,8.20
2019-03-21T07:43:57.681Z,8.23
2019-03-21T07:46:46.667Z,4.30
2019-03-21T07:49:17.216Z,4.90
2019-03-21T07:52:26.474Z,4.30
2019-03-21T07:54:57.305Z,3.97
2019-03-21T07:57:27.622Z,4.00
2019-03-21T07:59:58.070Z,5.83
2019-03-21T08:02:28.653Z,5.87
2019-03-21T08:04:59.107Z,7.33
2019-03-21T08:07:29.895Z,7.47
2019-03-21T08:10:00.678Z,4.43
2019-03-21T08:12:31.047Z,5.03
2019-03-21T08:15:01.505Z,6.87
2019-03-21T08:17:32.158Z,4.67
2019-03-21T08:20:02.412Z,5.50
2019-03-21T08:22:44.567Z,4.77
2019-03-21T08:25:04.924Z,7.70
2019-03-21T08:27:35.227Z,4.60
2019-03-21T08:30:07.080Z,7.27
2019-03-21T08:32:37.719Z,4.37
2019-03-21T08:35:08.759Z,8.73
2019-03-21T08:37:39.074Z,4.87
2019-03-21T08:40:29.791Z,2.67
2019-03-21T08:46:21.747Z,2.50
2019-03-21T08:48:52.354Z,2.53
2019-03-21T08:51:22.722Z,2.87
2019-03-21T08:53:53.083Z,2.90
2019-03-21T08:56:23.666Z,4.90
2019-03-21T08:58:53.961Z,4.43
2019-03-21T09:01:24.278Z,3.47
2019-03-21T09:03:54.806Z,2.43
2019-03-21T09:06:25.151Z,3.53
2019-03-21T09:08:55.757Z,3.33
2019-03-21T09:11:26.364Z,6.23
2019-03-21T09:13:57.487Z,3.30
2019-03-21T09:16:27.785Z,3.70
2019-03-21T09:21:47.562Z,5.73
2019-03-21T09:26:40.858Z,6.00
2019-03-21T09:29:11.164Z,2.93
2019-03-21T09:31:42.946Z,2.83
2019-03-21T09:34:13.317Z,3.23
2019-03-21T09:36:43.769Z,2.47
2019-03-21T09:39:14.338Z,3.57
2019-03-21T09:41:44.727Z,3.13
2019-03-21T09:44:14.001Z,2.73
2019-03-21T09:46:50.764Z,6.70
2019-03-21T09:49:36.279Z,3.03
2019-03-21T09:52:25.273Z,6.93
2019-03-21T09:54:55.528Z,4.23
2019-03-21T09:59:51.844Z,4.03
2019-03-21T10:02:22.161Z,4.10
2019-03-21T10:04:52.743Z,3.60
2019-03-21T10:07:23.005Z,3.63
2019-03-21T10:09:53.343Z,3.53
2019-03-21T10:12:23.657Z,4.87
2019-03-21T10:14:54.273Z,3.03
2019-03-21T10:17:25.216Z,3.90
2019-03-21T10:19:55.535Z,5.63
2019-03-21T10:22:26.163Z,4.30
2019-03-21T10:24:56.464Z,4.43
2019-03-21T10:27:27.146Z,5.43
2019-03-21T10:33:38.771Z,2.50
2019-03-21T10:36:11.509Z,3.63
2019-03-21T10:38:42.215Z,4.97
2019-03-21T10:41:12.533Z,3.20
2019-03-21T10:43:42.903Z,3.37
2019-03-21T10:46:13.546Z,5.50
2019-03-21T10:48:43.854Z,3.70
2019-03-21T10:51:14.440Z,3.67
2019-03-21T10:53:45.612Z,4.43
2019-03-21T10:56:15.885Z,4.17
2019-03-21T10:58:46.319Z,3.60
2019-03-21T11:01:17.283Z,4.63
2019-03-21T11:03:47.579Z,5.43
2019-03-21T11:06:17.921Z,3.77
2019-03-21T11:08:48.752Z,3.33
2019-03-21T11:11:19.089Z,3.93
2019-03-21T11:14:08.368Z,3.33
2019-03-21T11:16:38.814Z,3.90
2019-03-21T11:19:10.747Z,3.60
2019-03-21T11:21:41.107Z,4.13
2019-03-21T11:24:11.578Z,3.97
2019-03-21T11:26:41.866Z,3.40
2019-03-21T11:29:12.307Z,3.87
2019-03-21T11:31:42.996Z,4.20
2019-03-21T11:34:32.161Z,4.70
2019-03-21T11:37:16.597Z,4.50
2019-03-21T11:39:34.852Z,4.57
2019-03-21T11:42:26.656Z,5.43
2019-03-21T11:45:00.077Z,4.30
2019-03-21T11:47:41.402Z,5.17
2019-03-21T11:50:02.562Z,7.23
2019-03-21T11:52:33.201Z,5.53
2019-03-21T11:55:03.426Z,5.40
2019-03-21T11:57:33.833Z,5.00
2019-03-21T12:00:05.548Z,5.30
2019-03-21T12:02:35.961Z,5.53
2019-03-21T12:05:06.662Z,5.60
2019-03-21T12:07:37.384Z,5.57
2019-03-21T12:10:10.742Z,5.80
2019-03-21T12:12:41.521Z,5.50
2019-03-21T12:15:12.229Z,5.47
2019-03-21T12:17:42.713Z,5.10
2019-03-21T12:20:13.322Z,5.20
2019-03-21T12:22:43.925Z,6.33
2019-03-21T12:25:14.409Z,5.60
2019-03-21T12:27:44.754Z,6.57
2019-03-21T12:32:47.442Z,5.43
2019-03-21T12:35:17.671Z,4.50
2019-03-21T12:37:48.298Z,4.53
2019-03-21T12:40:18.585Z,5.63
2019-03-21T12:42:49.021Z,4.87
2019-03-21T12:45:19.631Z,5.23
2019-03-21T12:47:50.058Z,4.47
2019-03-21T12:50:20.439Z,5.73
2019-03-21T12:52:51.343Z,6.10
2019-03-21T12:55:21.765Z,5.70
2019-03-21T12:57:52.433Z,5.60
2019-03-21T13:00:42.306Z,9.13
2019-03-21T13:03:13.321Z,7.10
2019-03-21T13:05:44.229Z,5.77
2019-03-21T13:08:14.526Z,5.93
2019-03-21T13:10:44.754Z,5.77
2019-03-21T13:13:15.540Z,7.13
2019-03-21T13:15:46.008Z,6.00
2019-03-21T13:18:17.186Z,6.07
2019-03-21T13:20:47.877Z,6.70
2019-03-21T13:23:18.174Z,6.77
2019-03-21T13:25:48.901Z,6.40
2019-03-21T13:28:20.539Z,6.43
2019-03-21T13:30:50.909Z,6.33
2019-03-21T13:33:21.418Z,6.40
2019-03-21T13:35:51.993Z,5.23
2019-03-21T13:38:22.514Z,5.90
2019-03-21T13:40:52.813Z,6.37
2019-03-21T13:43:23.400Z,5.50
2019-03-21T13:45:53.689Z,6.00
2019-03-21T13:48:24.014Z,8.10
2019-03-21T13:50:54.608Z,5.47
2019-03-21T13:53:24.972Z,6.10
2019-03-21T13:55:55.294Z,6.87
2019-03-21T13:58:25.561Z,6.23
2019-03-21T14:01:15.352Z,6.20
2019-03-21T14:03:45.686Z,5.43
2019-03-21T14:06:16.390Z,7.27
2019-03-21T14:08:46.700Z,8.40
2019-03-21T14:11:19.269Z,6.47
2019-03-21T14:13:49.293Z,8.37
2019-03-21T14:16:38.330Z,8.67
2019-03-21T14:19:09.418Z,7.10
2019-03-21T14:21:39.758Z,6.20
2019-03-21T14:24:28.905Z,7.87
2019-03-21T14:26:59.291Z,10.23
2019-03-21T14:29:30.001Z,6.37
2019-03-21T14:32:00.311Z,9.67
2019-03-21T14:34:30.679Z,7.07
2019-03-21T14:37:01.397Z,5.73
2019-03-21T14:39:31.744Z,6.70
2019-03-21T14:42:02.305Z,6.77
2019-03-21T14:44:32.977Z,6.80
2019-03-21T14:47:03.413Z,6.53
2019-03-21T14:49:33.778Z,7.73
2019-03-21T14:52:04.439Z,6.67
2019-03-21T14:54:34.813Z,7.03
2019-03-21T14:57:05.214Z,6.23
2019-03-21T14:59:36.008Z,7.43
2019-03-21T15:02:06.574Z,8.07
2019-03-21T15:04:36.933Z,7.10
2019-03-21T15:07:26.040Z,10.43
2019-03-21T15:09:56.377Z,7.13
2019-03-21T15:12:29.624Z,8.70
2019-03-21T15:14:59.086Z,7.70
2019-03-21T15:17:48.094Z,8.10
2019-03-21T15:20:18.680Z,7.20
2019-03-21T15:22:49.388Z,8.27
2019-03-21T15:25:19.779Z,7.43
2019-03-21T15:27:50.100Z,11.33
2019-03-21T15:30:21.583Z,6.30
2019-03-21T15:32:51.912Z,6.93
2019-03-21T15:35:22.431Z,11.73
2019-03-21T15:37:56.407Z,7.30
2019-03-21T15:40:26.824Z,7.33
2019-03-21T15:42:57.352Z,6.27
2019-03-21T15:45:27.679Z,9.57
2019-03-21T15:47:58.022Z,6.37
2019-03-21T15:50:47.077Z,6.13
2019-03-21T15:59:25.236Z,6.53
2019-03-21T16:01:55.870Z,5.23
2019-03-21T16:04:26.195Z,6.27
2019-03-21T16:06:56.594Z,7.87
2019-03-21T16:09:27.285Z,7.33
2019-03-21T16:11:57.919Z,6.23
2019-03-21T16:14:49.231Z,6.80
2019-03-21T16:17:19.070Z,5.50
2019-03-21T16:19:49.700Z,8.33
2019-03-21T16:22:20.094Z,7.80
2019-03-21T16:24:50.435Z,7.53
2019-03-21T16:27:21.405Z,7.87
2019-03-21T16:29:51.713Z,4.50
2019-03-21T16:32:22.246Z,6.53
2019-03-21T16:38:32.742Z,8.97
2019-03-21T16:41:22.103Z,5.57
2019-03-21T16:43:52.544Z,11.03
2019-03-21T16:46:23.079Z,9.10
2019-03-21T16:48:53.460Z,9.83
2019-03-21T16:51:42.527Z,6.30
2019-03-21T16:54:17.342Z,4.77
2019-03-21T16:57:03.762Z,5.77
2019-03-21T16:59:52.843Z,4.57
2019-03-21T17:17:42.040Z,3.83
2019-03-21T17:23:28.511Z,3.87
2019-03-21T17:26:07.641Z,6.23
2019-03-21T17:28:49.096Z,6.03
2019-03-21T17:31:30.443Z,4.00
2019-03-21T17:34:12.010Z,3.07
2019-03-21T17:36:53.266Z,3.93
2019-03-21T17:39:34.805Z,3.30
2019-03-21T17:42:16.185Z,5.23
2019-03-21T17:44:58.922Z,3.43
2019-03-21T17:47:40.819Z,3.23
2019-03-21T17:50:22.528Z,4.00
2019-03-21T17:53:03.953Z,5.43
2019-03-21T17:55:45.251Z,4.93
2019-03-21T17:58:28.771Z,3.40
2019-03-21T18:01:09.593Z,5.33
2019-03-21T18:03:50.789Z,7.23
2019-03-21T18:09:14.480Z,5.80
2019-03-21T18:11:56.017Z,5.23
2019-03-21T18:14:37.920Z,4.70
2019-03-21T18:17:19.378Z,3.80
2019-03-21T18:20:01.011Z,5.07
2019-03-21T18:22:45.522Z,4.43
2019-03-21T18:28:24.514Z,4.40
2019-03-21T18:31:06.094Z,5.80
2019-03-21T18:33:47.277Z,4.43
2019-03-21T18:36:28.462Z,3.97
2019-03-21T18:38:59.994Z,5.50
2019-03-21T18:41:31.188Z,6.23
2019-03-21T18:44:01.707Z,5.40
2019-03-21T18:46:32.411Z,7.70
2019-03-21T18:49:21.611Z,4.63
2019-03-21T18:52:10.765Z,7.43
2019-03-21T18:55:06.390Z,4.87
2019-03-21T18:57:50.505Z,7.00
2019-03-21T19:03:24.334Z,7.10
2019-03-21T19:05:54.757Z,5.87
2019-03-21T19:08:25.159Z,4.83
2019-03-21T19:10:55.528Z,7.07
2019-03-21T19:13:26.279Z,7.17
2019-03-21T19:15:56.774Z,7.57
2019-03-21T19:18:27.481Z,6.90
2019-03-21T19:20:57.859Z,8.63
2019-03-21T19:23:28.818Z,6.63
2019-03-21T19:25:59.708Z,11.47
2019-03-21T19:28:30.232Z,6.53
2019-03-21T19:31:00.559Z,9.17
2019-03-21T19:33:31.500Z,8.07
2019-03-21T19:36:01.982Z,7.07
2019-03-21T19:38:32.363Z,10.13
2019-03-21T19:41:03.048Z,6.90
2019-03-21T19:43:33.763Z,6.67
2019-03-21T19:46:04.126Z,10.97
2019-03-21T19:48:34.806Z,9.20
2019-03-21T19:51:05.261Z,10.27
2019-03-21T19:53:35.845Z,12.57
2019-03-21T19:56:08.699Z,9.13
2019-03-21T19:58:39.128Z,7.40
2019-03-21T20:01:09.592Z,9.60
2019-03-21T20:03:41.595Z,11.60
2019-03-21T20:06:12.345Z,8.90
2019-03-21T20:08:42.780Z,9.37
2019-03-21T20:11:13.526Z,12.73
2019-03-21T20:13:43.944Z,12.37
2019-03-21T20:16:14.462Z,9.33
2019-03-21T20:18:46.898Z,8.33
2019-03-21T20:21:17.235Z,10.73
2019-03-21T20:23:47.662Z,13.67
2019-03-21T20:26:18.364Z,9.43
2019-03-21T20:28:48.799Z,12.37
2019-03-21T20:31:19.169Z,11.17
2019-03-21T20:33:50.278Z,13.37
2019-03-21T20:36:20.848Z,10.77
2019-03-21T20:38:51.526Z,10.87
2019-03-21T20:41:22.304Z,7.80
2019-03-21T20:43:52.755Z,9.37
2019-03-21T20:46:23.209Z,8.10
2019-03-21T20:48:52.548Z,9.47
2019-03-21T20:51:23.023Z,9.73
2019-03-21T20:53:55.094Z,12.67
2019-03-21T20:56:26.199Z,9.47
2019-03-21T20:58:56.637Z,12.47
2019-03-21T21:01:27.249Z,8.17
2019-03-21T21:03:57.782Z,7.63
2019-03-21T21:06:30.029Z,8.93
2019-03-21T21:09:01.085Z,17.67
2019-03-21T21:11:31.523Z,9.77
2019-03-21T21:14:01.869Z,11.43
2019-03-21T21:16:34.838Z,11.53
2019-03-21T21:19:05.322Z,11.93
2019-03-21T21:21:35.882Z,10.73
2019-03-21T21:24:06.868Z,12.30
2019-03-21T21:26:37.245Z,10.87
2019-03-21T21:29:07.610Z,9.33
2019-03-21T21:31:38.538Z,13.60
2019-03-21T21:34:08.858Z,8.27
2019-03-21T21:36:41.946Z,9.27
2019-03-21T21:39:13.710Z,12.10
2019-03-21T21:41:44.432Z,10.10
2019-03-21T21:44:14.888Z,9.17
2019-03-21T21:46:45.297Z,10.07
2019-03-21T21:49:16.006Z,11.00
2019-03-21T21:51:46.506Z,9.10
2019-03-21T21:54:16.956Z,9.50
2019-03-21T21:56:47.668Z,13.93
2019-03-21T21:59:18.174Z,13.70
2019-03-21T22:01:48.568Z,12.60
2019-03-21T22:04:18.953Z,12.70
2019-03-21T22:06:49.313Z,12.10
2019-03-21T22:09:20.178Z,12.93
2019-03-21T22:11:50.513Z,14.87
2019-03-21T22:14:20.854Z,14.00
2019-03-21T22:16:51.727Z,14.20
2019-03-21T22:19:22.059Z,14.03
2019-03-21T22:21:52.464Z,13.27
2019-03-21T22:24:23.231Z,13.40
2019-03-21T22:26:53.632Z,17.50
2019-03-21T22:29:23.938Z,14.67
2019-03-21T22:34:44.381Z,15.40
2019-03-21T22:37:33.872Z,16.37
2019-03-21T22:40:04.950Z,17.13
2019-03-21T22:42:35.563Z,15.23
2019-03-21T22:45:08.410Z,16.10
2019-03-21T22:47:38.818Z,20.60
2019-03-21T22:50:11.167Z,19.23
2019-03-21T22:52:41.708Z,20.83
2019-03-21T22:55:12.393Z,16.50
2019-03-21T22:57:43.094Z,20.83
2019-03-21T23:00:16.096Z,17.70
2019-03-21T23:02:46.584Z,17.90
2019-03-21T23:05:21.469Z,18.87
2019-03-21T23:07:51.761Z,17.70
2019-03-21T23:13:42.700Z,18.97
2019-03-21T23:22:22.869Z,20.00
2019-03-21T23:24:53.213Z,20.77
2019-03-21T23:27:23.582Z,22.27
2019-03-21T23:36:14.856Z,20.83
2019-03-21T23:38:56.219Z,21.53
2019-03-21T23:41:37.796Z,19.70
2019-03-21T23:44:19.234Z,18.37
2019-03-21T23:47:00.813Z,18.73
2019-03-21T23:49:42.389Z,17.13
2019-03-21T23:52:23.919Z,16.03
2019-03-21T23:55:05.456Z,14.97
2019-03-21T23:57:45.739Z,15.97
